sensor_id;sensor_type;location;lat;lon;timestamp;temperature;humidity
19281;DHT22;9774;52.034;5.342;2023-11-21T00:01:33;11.20;68.20
19281;DHT22;9774;52.034;5.342;2023-11-21T00:04:00;11.10;68.20
19281;DHT22;9774;52.034;5.342;2023-11-21T00:06:27;11.10;68.20
19281;DHT22;9774;52.034;5.342;2023-11-21T00:08:56;11.10;68.30
19281;DHT22;9774;52.034;5.342;2023-11-21T00:11:23;11.10;68.40
19281;DHT22;9774;52.034;5.342;2023-11-21T00:13:50;11.10;68.40
19281;DHT22;9774;52.034;5.342;2023-11-21T00:16:18;11.10;68.40
19281;DHT22;9774;52.034;5.342;2023-11-21T00:18:46;11.10;68.50
19281;DHT22;9774;52.034;5.342;2023-11-21T00:21:13;11.20;68.60
19281;DHT22;9774;52.034;5.342;2023-11-21T00:23:40;11.20;68.60
19281;DHT22;9774;52.034;5.342;2023-11-21T00:26:07;11.20;68.60
19281;DHT22;9774;52.034;5.342;2023-11-21T00:28:34;11.20;68.70
19281;DHT22;9774;52.034;5.342;2023-11-21T00:31:01;11.20;68.70
19281;DHT22;9774;52.034;5.342;2023-11-21T00:33:28;11.20;68.70
19281;DHT22;9774;52.034;5.342;2023-11-21T00:35:56;11.20;68.70
19281;DHT22;9774;52.034;5.342;2023-11-21T00:38:23;11.20;68.80
19281;DHT22;9774;52.034;5.342;2023-11-21T00:40:50;11.30;68.80
19281;DHT22;9774;52.034;5.342;2023-11-21T00:43:18;11.30;69.60
19281;DHT22;9774;52.034;5.342;2023-11-21T00:45:45;11.30;69.00
19281;DHT22;9774;52.034;5.342;2023-11-21T00:48:14;11.30;69.00
19281;DHT22;9774;52.034;5.342;2023-11-21T00:50:41;11.30;68.90
19281;DHT22;9774;52.034;5.342;2023-11-21T00:53:10;11.30;68.90
19281;DHT22;9774;52.034;5.342;2023-11-21T00:55:38;11.40;69.00
19281;DHT22;9774;52.034;5.342;2023-11-21T00:58:05;11.40;68.90
19281;DHT22;9774;52.034;5.342;2023-11-21T01:00:33;11.40;68.90
19281;DHT22;9774;52.034;5.342;2023-11-21T01:03:00;11.40;69.00
19281;DHT22;9774;52.034;5.342;2023-11-21T01:05:28;11.40;68.90
19281;DHT22;9774;52.034;5.342;2023-11-21T01:07:55;11.40;68.90
19281;DHT22;9774;52.034;5.342;2023-11-21T01:10:23;11.40;69.00
19281;DHT22;9774;52.034;5.342;2023-11-21T01:12:50;11.40;68.90
19281;DHT22;9774;52.034;5.342;2023-11-21T01:15:17;11.40;69.00
19281;DHT22;9774;52.034;5.342;2023-11-21T01:17:44;11.40;68.90
19281;DHT22;9774;52.034;5.342;2023-11-21T01:20:11;11.50;69.00
19281;DHT22;9774;52.034;5.342;2023-11-21T01:22:39;11.40;68.90
19281;DHT22;9774;52.034;5.342;2023-11-21T01:25:06;11.50;69.00
19281;DHT22;9774;52.034;5.342;2023-11-21T01:27:34;11.50;68.90
19281;DHT22;9774;52.034;5.342;2023-11-21T01:30:02;11.50;68.80
19281;DHT22;9774;52.034;5.342;2023-11-21T01:32:30;11.50;68.80
19281;DHT22;9774;52.034;5.342;2023-11-21T01:34:57;11.50;68.80
19281;DHT22;9774;52.034;5.342;2023-11-21T01:37:24;11.40;68.70
19281;DHT22;9774;52.034;5.342;2023-11-21T01:39:53;11.40;68.70
19281;DHT22;9774;52.034;5.342;2023-11-21T01:42:21;11.50;68.80
19281;DHT22;9774;52.034;5.342;2023-11-21T01:44:49;11.50;68.90
19281;DHT22;9774;52.034;5.342;2023-11-21T01:47:17;11.50;68.80
19281;DHT22;9774;52.034;5.342;2023-11-21T01:49:45;11.50;68.80
19281;DHT22;9774;52.034;5.342;2023-11-21T01:52:13;11.40;68.80
19281;DHT22;9774;52.034;5.342;2023-11-21T01:54:41;11.50;68.90
19281;DHT22;9774;52.034;5.342;2023-11-21T01:57:08;11.50;68.90
19281;DHT22;9774;52.034;5.342;2023-11-21T01:59:36;11.50;68.90
19281;DHT22;9774;52.034;5.342;2023-11-21T02:02:05;11.50;68.90
19281;DHT22;9774;52.034;5.342;2023-11-21T02:04:33;11.50;69.00
19281;DHT22;9774;52.034;5.342;2023-11-21T02:07:00;11.50;68.90
19281;DHT22;9774;52.034;5.342;2023-11-21T02:09:28;11.50;69.00
19281;DHT22;9774;52.034;5.342;2023-11-21T02:11:56;11.50;69.00
19281;DHT22;9774;52.034;5.342;2023-11-21T02:14:24;11.50;69.00
19281;DHT22;9774;52.034;5.342;2023-11-21T02:16:53;11.50;69.10
19281;DHT22;9774;52.034;5.342;2023-11-21T02:19:22;11.50;69.10
19281;DHT22;9774;52.034;5.342;2023-11-21T02:21:51;11.50;69.10
19281;DHT22;9774;52.034;5.342;2023-11-21T02:24:21;11.60;69.80
19281;DHT22;9774;52.034;5.342;2023-11-21T02:26:49;11.60;69.20
19281;DHT22;9774;52.034;5.342;2023-11-21T02:29:17;11.60;69.30
19281;DHT22;9774;52.034;5.342;2023-11-21T02:31:48;11.60;69.20
19281;DHT22;9774;52.034;5.342;2023-11-21T02:34:17;11.60;69.30
19281;DHT22;9774;52.034;5.342;2023-11-21T02:36:44;11.70;69.30
19281;DHT22;9774;52.034;5.342;2023-11-21T02:39:12;11.70;69.40
19281;DHT22;9774;52.034;5.342;2023-11-21T02:41:41;11.70;69.50
19281;DHT22;9774;52.034;5.342;2023-11-21T02:44:08;11.80;69.50
19281;DHT22;9774;52.034;5.342;2023-11-21T02:46:36;11.80;69.50
19281;DHT22;9774;52.034;5.342;2023-11-21T02:49:06;11.80;69.40
19281;DHT22;9774;52.034;5.342;2023-11-21T02:51:35;11.80;69.40
19281;DHT22;9774;52.034;5.342;2023-11-21T02:54:03;11.90;69.40
19281;DHT22;9774;52.034;5.342;2023-11-21T02:56:32;11.90;69.40
19281;DHT22;9774;52.034;5.342;2023-11-21T02:59:00;11.90;69.40
19281;DHT22;9774;52.034;5.342;2023-11-21T03:01:28;11.90;69.40
19281;DHT22;9774;52.034;5.342;2023-11-21T03:03:55;11.90;69.40
19281;DHT22;9774;52.034;5.342;2023-11-21T03:06:22;12.00;69.40
19281;DHT22;9774;52.034;5.342;2023-11-21T03:08:50;12.00;69.50
19281;DHT22;9774;52.034;5.342;2023-11-21T03:11:17;12.00;69.40
19281;DHT22;9774;52.034;5.342;2023-11-21T03:13:44;12.00;69.40
19281;DHT22;9774;52.034;5.342;2023-11-21T03:16:14;12.10;69.50
19281;DHT22;9774;52.034;5.342;2023-11-21T03:18:41;12.10;69.50
19281;DHT22;9774;52.034;5.342;2023-11-21T03:21:10;12.10;69.50
19281;DHT22;9774;52.034;5.342;2023-11-21T03:23:37;12.10;69.40
19281;DHT22;9774;52.034;5.342;2023-11-21T03:26:05;12.20;69.40
19281;DHT22;9774;52.034;5.342;2023-11-21T03:28:34;12.20;69.40
19281;DHT22;9774;52.034;5.342;2023-11-21T03:31:01;12.20;69.40
19281;DHT22;9774;52.034;5.342;2023-11-21T03:33:29;12.20;69.50
19281;DHT22;9774;52.034;5.342;2023-11-21T03:35:56;12.20;69.40
19281;DHT22;9774;52.034;5.342;2023-11-21T03:38:23;12.30;69.50
19281;DHT22;9774;52.034;5.342;2023-11-21T03:40:50;12.30;69.50
19281;DHT22;9774;52.034;5.342;2023-11-21T03:43:18;12.30;69.50
19281;DHT22;9774;52.034;5.342;2023-11-21T03:45:45;12.30;69.50
19281;DHT22;9774;52.034;5.342;2023-11-21T03:48:12;12.40;69.60
19281;DHT22;9774;52.034;5.342;2023-11-21T03:50:41;12.40;69.60
19281;DHT22;9774;52.034;5.342;2023-11-21T03:53:08;12.40;69.50
19281;DHT22;9774;52.034;5.342;2023-11-21T03:55:35;12.40;69.40
19281;DHT22;9774;52.034;5.342;2023-11-21T03:58:02;12.40;69.40
19281;DHT22;9774;52.034;5.342;2023-11-21T04:00:30;12.50;69.50
19281;DHT22;9774;52.034;5.342;2023-11-21T04:02:58;12.50;69.50
19281;DHT22;9774;52.034;5.342;2023-11-21T04:05:25;12.50;69.50
19281;DHT22;9774;52.034;5.342;2023-11-21T04:07:53;12.50;69.40
19281;DHT22;9774;52.034;5.342;2023-11-21T04:10:20;12.60;69.40
19281;DHT22;9774;52.034;5.342;2023-11-21T04:12:47;12.50;70.00
19281;DHT22;9774;52.034;5.342;2023-11-21T04:15:14;12.60;69.40
19281;DHT22;9774;52.034;5.342;2023-11-21T04:17:42;12.60;69.40
19281;DHT22;9774;52.034;5.342;2023-11-21T04:20:11;12.50;69.30
19281;DHT22;9774;52.034;5.342;2023-11-21T04:22:39;12.60;69.40
19281;DHT22;9774;52.034;5.342;2023-11-21T04:25:11;12.60;69.40
19281;DHT22;9774;52.034;5.342;2023-11-21T04:27:39;12.60;69.40
19281;DHT22;9774;52.034;5.342;2023-11-21T04:30:09;12.60;69.40
19281;DHT22;9774;52.034;5.342;2023-11-21T04:32:37;12.60;69.40
19281;DHT22;9774;52.034;5.342;2023-11-21T04:35:05;12.60;69.50
19281;DHT22;9774;52.034;5.342;2023-11-21T04:37:34;12.70;69.50
19281;DHT22;9774;52.034;5.342;2023-11-21T04:40:01;12.70;69.50
19281;DHT22;9774;52.034;5.342;2023-11-21T04:42:33;12.70;69.50
19281;DHT22;9774;52.034;5.342;2023-11-21T04:45:01;12.70;69.50
19281;DHT22;9774;52.034;5.342;2023-11-21T04:47:30;12.70;69.50
19281;DHT22;9774;52.034;5.342;2023-11-21T04:49:57;12.70;69.50
19281;DHT22;9774;52.034;5.342;2023-11-21T04:52:24;12.80;69.60
19281;DHT22;9774;52.034;5.342;2023-11-21T04:54:51;12.80;69.60
19281;DHT22;9774;52.034;5.342;2023-11-21T04:57:20;12.80;69.60
19281;DHT22;9774;52.034;5.342;2023-11-21T04:59:48;12.80;69.60
19281;DHT22;9774;52.034;5.342;2023-11-21T05:02:15;12.80;69.60
19281;DHT22;9774;52.034;5.342;2023-11-21T05:04:45;12.80;69.60
19281;DHT22;9774;52.034;5.342;2023-11-21T05:07:12;12.80;69.50
19281;DHT22;9774;52.034;5.342;2023-11-21T05:09:41;12.90;69.50
19281;DHT22;9774;52.034;5.342;2023-11-21T05:12:11;12.90;69.60
19281;DHT22;9774;52.034;5.342;2023-11-21T05:14:39;12.90;69.50
19281;DHT22;9774;52.034;5.342;2023-11-21T05:17:08;12.90;69.50
19281;DHT22;9774;52.034;5.342;2023-11-21T05:19:35;12.90;69.50
19281;DHT22;9774;52.034;5.342;2023-11-21T05:22:03;12.90;69.50
19281;DHT22;9774;52.034;5.342;2023-11-21T05:24:31;12.90;69.50
19281;DHT22;9774;52.034;5.342;2023-11-21T05:26:58;13.00;69.60
19281;DHT22;9774;52.034;5.342;2023-11-21T05:29:25;13.00;69.60
19281;DHT22;9774;52.034;5.342;2023-11-21T05:31:53;13.00;69.60
19281;DHT22;9774;52.034;5.342;2023-11-21T05:34:22;13.00;69.70
19281;DHT22;9774;52.034;5.342;2023-11-21T05:36:49;13.00;69.70
19281;DHT22;9774;52.034;5.342;2023-11-21T05:39:16;13.00;69.60
19281;DHT22;9774;52.034;5.342;2023-11-21T05:41:45;13.00;69.60
19281;DHT22;9774;52.034;5.342;2023-11-21T05:44:12;13.00;69.70
19281;DHT22;9774;52.034;5.342;2023-11-21T05:46:40;13.10;69.70
19281;DHT22;9774;52.034;5.342;2023-11-21T05:49:08;13.10;69.70
19281;DHT22;9774;52.034;5.342;2023-11-21T05:51:37;13.10;69.70
19281;DHT22;9774;52.034;5.342;2023-11-21T05:54:04;13.10;69.70
19281;DHT22;9774;52.034;5.342;2023-11-21T05:56:31;13.10;69.60
19281;DHT22;9774;52.034;5.342;2023-11-21T05:58:58;13.10;69.60
19281;DHT22;9774;52.034;5.342;2023-11-21T06:01:25;13.10;69.60
19281;DHT22;9774;52.034;5.342;2023-11-21T06:03:53;13.10;69.60
19281;DHT22;9774;52.034;5.342;2023-11-21T06:06:21;13.20;69.60
19281;DHT22;9774;52.034;5.342;2023-11-21T06:08:51;13.10;69.60
19281;DHT22;9774;52.034;5.342;2023-11-21T06:11:18;13.10;70.30
19281;DHT22;9774;52.034;5.342;2023-11-21T06:13:45;13.10;71.00
19281;DHT22;9774;52.034;5.342;2023-11-21T06:16:13;13.10;70.20
19281;DHT22;9774;52.034;5.342;2023-11-21T06:18:42;13.20;70.00
19281;DHT22;9774;52.034;5.342;2023-11-21T06:21:10;13.20;69.90
19281;DHT22;9774;52.034;5.342;2023-11-21T06:23:37;13.30;70.00
19281;DHT22;9774;52.034;5.342;2023-11-21T06:26:06;13.30;69.80
19281;DHT22;9774;52.034;5.342;2023-11-21T06:28:34;13.30;69.80
19281;DHT22;9774;52.034;5.342;2023-11-21T06:31:02;13.30;69.80
19281;DHT22;9774;52.034;5.342;2023-11-21T06:33:30;13.30;69.70
19281;DHT22;9774;52.034;5.342;2023-11-21T06:35:57;13.30;69.70
19281;DHT22;9774;52.034;5.342;2023-11-21T06:38:25;13.40;69.80
19281;DHT22;9774;52.034;5.342;2023-11-21T06:40:55;13.40;69.80
19281;DHT22;9774;52.034;5.342;2023-11-21T06:43:24;13.40;69.70
19281;DHT22;9774;52.034;5.342;2023-11-21T06:45:52;13.40;69.70
19281;DHT22;9774;52.034;5.342;2023-11-21T06:48:20;13.40;69.70
19281;DHT22;9774;52.034;5.342;2023-11-21T06:50:46;13.40;69.60
19281;DHT22;9774;52.034;5.342;2023-11-21T06:53:14;13.40;69.60
19281;DHT22;9774;52.034;5.342;2023-11-21T06:55:41;13.40;69.70
19281;DHT22;9774;52.034;5.342;2023-11-21T06:58:08;13.40;69.70
19281;DHT22;9774;52.034;5.342;2023-11-21T07:00:36;13.40;69.70
19281;DHT22;9774;52.034;5.342;2023-11-21T07:03:03;13.40;69.70
19281;DHT22;9774;52.034;5.342;2023-11-21T07:05:30;13.40;69.70
19281;DHT22;9774;52.034;5.342;2023-11-21T07:07:57;13.40;69.70
19281;DHT22;9774;52.034;5.342;2023-11-21T07:10:29;13.40;69.80
19281;DHT22;9774;52.034;5.342;2023-11-21T07:12:56;13.40;69.80
19281;DHT22;9774;52.034;5.342;2023-11-21T07:15:23;13.50;69.90
19281;DHT22;9774;52.034;5.342;2023-11-21T07:17:52;13.40;69.80
19281;DHT22;9774;52.034;5.342;2023-11-21T07:20:19;13.50;70.00
19281;DHT22;9774;52.034;5.342;2023-11-21T07:22:47;13.50;70.00
19281;DHT22;9774;52.034;5.342;2023-11-21T07:25:14;13.50;70.00
19281;DHT22;9774;52.034;5.342;2023-11-21T07:27:42;13.50;70.00
19281;DHT22;9774;52.034;5.342;2023-11-21T07:30:11;13.50;70.00
19281;DHT22;9774;52.034;5.342;2023-11-21T07:32:38;13.50;70.20
19281;DHT22;9774;52.034;5.342;2023-11-21T07:35:08;13.60;70.10
19281;DHT22;9774;52.034;5.342;2023-11-21T07:37:35;13.60;70.10
19281;DHT22;9774;52.034;5.342;2023-11-21T07:40:03;13.60;70.10
19281;DHT22;9774;52.034;5.342;2023-11-21T07:42:31;13.60;70.20
19281;DHT22;9774;52.034;5.342;2023-11-21T07:44:58;13.60;70.20
19281;DHT22;9774;52.034;5.342;2023-11-21T07:47:25;13.70;70.30
19281;DHT22;9774;52.034;5.342;2023-11-21T07:49:52;13.70;70.30
19281;DHT22;9774;52.034;5.342;2023-11-21T07:52:22;13.70;70.20
19281;DHT22;9774;52.034;5.342;2023-11-21T07:54:49;13.70;70.20
19281;DHT22;9774;52.034;5.342;2023-11-21T07:57:16;13.70;70.20
19281;DHT22;9774;52.034;5.342;2023-11-21T07:59:43;13.70;70.20
19281;DHT22;9774;52.034;5.342;2023-11-21T08:02:10;13.80;70.40
19281;DHT22;9774;52.034;5.342;2023-11-21T08:04:37;13.80;70.40
19281;DHT22;9774;52.034;5.342;2023-11-21T08:07:05;13.80;70.40
19281;DHT22;9774;52.034;5.342;2023-11-21T08:09:34;13.90;70.50
19281;DHT22;9774;52.034;5.342;2023-11-21T08:12:01;13.90;70.50
19281;DHT22;9774;52.034;5.342;2023-11-21T08:14:28;13.90;70.50
19281;DHT22;9774;52.034;5.342;2023-11-21T08:16:55;13.90;71.20
19281;DHT22;9774;52.034;5.342;2023-11-21T08:19:23;14.00;70.60
19281;DHT22;9774;52.034;5.342;2023-11-21T08:21:51;14.00;70.70
19281;DHT22;9774;52.034;5.342;2023-11-21T08:24:20;14.10;70.70
19281;DHT22;9774;52.034;5.342;2023-11-21T08:26:49;14.10;70.70
19281;DHT22;9774;52.034;5.342;2023-11-21T08:29:16;14.10;70.70
19281;DHT22;9774;52.034;5.342;2023-11-21T08:31:43;14.20;70.80
19281;DHT22;9774;52.034;5.342;2023-11-21T08:34:12;14.20;71.50
19281;DHT22;9774;52.034;5.342;2023-11-21T08:36:41;14.20;70.70
19281;DHT22;9774;52.034;5.342;2023-11-21T08:39:09;14.30;70.70
19281;DHT22;9774;52.034;5.342;2023-11-21T08:41:36;14.30;70.70
19281;DHT22;9774;52.034;5.342;2023-11-21T08:44:05;14.30;70.80
19281;DHT22;9774;52.034;5.342;2023-11-21T08:46:33;14.40;70.90
19281;DHT22;9774;52.034;5.342;2023-11-21T08:49:02;14.40;70.90
19281;DHT22;9774;52.034;5.342;2023-11-21T08:51:30;14.40;70.90
19281;DHT22;9774;52.034;5.342;2023-11-21T08:53:57;14.40;70.90
19281;DHT22;9774;52.034;5.342;2023-11-21T08:56:26;14.50;70.90
19281;DHT22;9774;52.034;5.342;2023-11-21T08:58:53;14.50;70.90
19281;DHT22;9774;52.034;5.342;2023-11-21T09:01:22;14.50;70.80
19281;DHT22;9774;52.034;5.342;2023-11-21T09:03:49;14.60;70.80
19281;DHT22;9774;52.034;5.342;2023-11-21T09:06:16;14.60;70.80
19281;DHT22;9774;52.034;5.342;2023-11-21T09:08:43;14.60;70.90
19281;DHT22;9774;52.034;5.342;2023-11-21T09:11:11;14.60;70.90
19281;DHT22;9774;52.034;5.342;2023-11-21T09:13:37;14.60;71.00
19281;DHT22;9774;52.034;5.342;2023-11-21T09:16:05;14.70;71.10
19281;DHT22;9774;52.034;5.342;2023-11-21T09:18:34;14.70;71.20
19281;DHT22;9774;52.034;5.342;2023-11-21T09:21:01;14.70;71.40
19281;DHT22;9774;52.034;5.342;2023-11-21T09:23:27;14.80;71.50
19281;DHT22;9774;52.034;5.342;2023-11-21T09:25:54;14.80;71.60
19281;DHT22;9774;52.034;5.342;2023-11-21T09:28:22;14.90;71.70
19281;DHT22;9774;52.034;5.342;2023-11-21T09:30:49;15.00;71.90
19281;DHT22;9774;52.034;5.342;2023-11-21T09:33:16;15.10;71.90
19281;DHT22;9774;52.034;5.342;2023-11-21T09:35:45;15.10;71.80
19281;DHT22;9774;52.034;5.342;2023-11-21T09:38:13;15.10;71.70
19281;DHT22;9774;52.034;5.342;2023-11-21T09:40:40;15.20;71.70
19281;DHT22;9774;52.034;5.342;2023-11-21T09:43:09;15.20;71.60
19281;DHT22;9774;52.034;5.342;2023-11-21T09:45:45;15.30;71.50
19281;DHT22;9774;52.034;5.342;2023-11-21T09:48:14;15.40;71.40
19281;DHT22;9774;52.034;5.342;2023-11-21T09:50:42;15.40;71.30
19281;DHT22;9774;52.034;5.342;2023-11-21T09:53:15;15.40;71.10
19281;DHT22;9774;52.034;5.342;2023-11-21T09:55:48;15.40;71.00
19281;DHT22;9774;52.034;5.342;2023-11-21T09:58:17;15.40;70.90
19281;DHT22;9774;52.034;5.342;2023-11-21T10:00:47;15.40;70.80
19281;DHT22;9774;52.034;5.342;2023-11-21T10:03:15;15.50;70.80
19281;DHT22;9774;52.034;5.342;2023-11-21T10:05:43;15.40;70.60
19281;DHT22;9774;52.034;5.342;2023-11-21T10:08:13;15.40;70.60
19281;DHT22;9774;52.034;5.342;2023-11-21T10:10:43;15.40;70.60
19281;DHT22;9774;52.034;5.342;2023-11-21T10:13:14;15.40;70.50
19281;DHT22;9774;52.034;5.342;2023-11-21T10:15:43;15.40;70.40
19281;DHT22;9774;52.034;5.342;2023-11-21T10:18:15;15.40;70.40
19281;DHT22;9774;52.034;5.342;2023-11-21T10:20:45;15.40;70.40
19281;DHT22;9774;52.034;5.342;2023-11-21T10:23:18;15.40;70.40
19281;DHT22;9774;52.034;5.342;2023-11-21T10:25:46;15.40;70.40
19281;DHT22;9774;52.034;5.342;2023-11-21T10:28:14;15.30;70.40
19281;DHT22;9774;52.034;5.342;2023-11-21T10:30:41;15.30;70.50
19281;DHT22;9774;52.034;5.342;2023-11-21T10:33:09;15.40;71.30
19281;DHT22;9774;52.034;5.342;2023-11-21T10:35:43;15.30;70.50
19281;DHT22;9774;52.034;5.342;2023-11-21T10:38:14;15.40;70.50
19281;DHT22;9774;52.034;5.342;2023-11-21T10:40:41;15.40;70.40
19281;DHT22;9774;52.034;5.342;2023-11-21T10:43:10;15.40;70.40
19281;DHT22;9774;52.034;5.342;2023-11-21T10:45:39;15.30;70.20
19281;DHT22;9774;52.034;5.342;2023-11-21T10:48:06;15.30;70.10
19281;DHT22;9774;52.034;5.342;2023-11-21T10:50:35;15.30;70.10
19281;DHT22;9774;52.034;5.342;2023-11-21T10:53:04;15.30;70.00
19281;DHT22;9774;52.034;5.342;2023-11-21T10:55:32;15.30;70.00
19281;DHT22;9774;52.034;5.342;2023-11-21T10:58:01;15.30;70.00
19281;DHT22;9774;52.034;5.342;2023-11-21T11:00:30;15.20;69.90
19281;DHT22;9774;52.034;5.342;2023-11-21T11:02:59;15.20;70.00
19281;DHT22;9774;52.034;5.342;2023-11-21T11:05:28;15.20;69.90
19281;DHT22;9774;52.034;5.342;2023-11-21T11:07:59;15.20;69.90
19281;DHT22;9774;52.034;5.342;2023-11-21T11:10:30;15.20;69.80
19281;DHT22;9774;52.034;5.342;2023-11-21T11:12:59;15.20;69.80
19281;DHT22;9774;52.034;5.342;2023-11-21T11:15:27;15.20;69.80
19281;DHT22;9774;52.034;5.342;2023-11-21T11:17:55;15.10;69.70
19281;DHT22;9774;52.034;5.342;2023-11-21T11:20:24;15.10;69.80
19281;DHT22;9774;52.034;5.342;2023-11-21T11:23:22;15.10;69.70
19281;DHT22;9774;52.034;5.342;2023-11-21T11:26:10;15.10;69.70
19281;DHT22;9774;52.034;5.342;2023-11-21T11:28:47;15.10;69.70
19281;DHT22;9774;52.034;5.342;2023-11-21T11:31:28;15.10;69.90
19281;DHT22;9774;52.034;5.342;2023-11-21T11:34:17;15.10;69.80
19281;DHT22;9774;52.034;5.342;2023-11-21T11:36:55;15.10;69.80
19281;DHT22;9774;52.034;5.342;2023-11-21T11:39:28;15.10;69.70
19281;DHT22;9774;52.034;5.342;2023-11-21T11:42:03;15.10;69.80
19281;DHT22;9774;52.034;5.342;2023-11-21T11:44:53;15.10;69.90
19281;DHT22;9774;52.034;5.342;2023-11-21T11:47:24;15.10;69.90
19281;DHT22;9774;52.034;5.342;2023-11-21T11:50:00;15.10;69.80
19281;DHT22;9774;52.034;5.342;2023-11-21T11:52:35;15.00;69.70
19281;DHT22;9774;52.034;5.342;2023-11-21T11:55:05;15.10;69.70
19281;DHT22;9774;52.034;5.342;2023-11-21T11:57:37;15.10;69.80
19281;DHT22;9774;52.034;5.342;2023-11-21T12:00:13;15.00;69.70
19281;DHT22;9774;52.034;5.342;2023-11-21T12:02:45;15.00;69.60
19281;DHT22;9774;52.034;5.342;2023-11-21T12:05:14;15.00;69.70
19281;DHT22;9774;52.034;5.342;2023-11-21T12:07:45;15.00;69.80
19281;DHT22;9774;52.034;5.342;2023-11-21T12:10:14;15.00;69.90
19281;DHT22;9774;52.034;5.342;2023-11-21T12:12:45;15.00;69.90
19281;DHT22;9774;52.034;5.342;2023-11-21T12:15:14;15.00;69.80
19281;DHT22;9774;52.034;5.342;2023-11-21T12:17:42;15.00;69.80
19281;DHT22;9774;52.034;5.342;2023-11-21T12:20:11;15.00;69.90
19281;DHT22;9774;52.034;5.342;2023-11-21T12:22:43;14.90;69.80
19281;DHT22;9774;52.034;5.342;2023-11-21T12:25:13;14.90;69.80
19281;DHT22;9774;52.034;5.342;2023-11-21T12:27:45;15.00;70.00
19281;DHT22;9774;52.034;5.342;2023-11-21T12:30:15;15.00;70.10
19281;DHT22;9774;52.034;5.342;2023-11-21T12:32:45;15.00;70.10
19281;DHT22;9774;52.034;5.342;2023-11-21T12:35:14;15.00;70.10
19281;DHT22;9774;52.034;5.342;2023-11-21T12:37:45;15.00;70.00
19281;DHT22;9774;52.034;5.342;2023-11-21T12:40:13;15.00;69.80
19281;DHT22;9774;52.034;5.342;2023-11-21T12:42:45;15.00;69.80
19281;DHT22;9774;52.034;5.342;2023-11-21T12:45:21;15.00;69.80
19281;DHT22;9774;52.034;5.342;2023-11-21T12:47:52;15.00;69.80
19281;DHT22;9774;52.034;5.342;2023-11-21T12:50:24;15.00;69.90
19281;DHT22;9774;52.034;5.342;2023-11-21T12:52:58;15.00;69.90
19281;DHT22;9774;52.034;5.342;2023-11-21T12:55:26;15.00;69.90
19281;DHT22;9774;52.034;5.342;2023-11-21T12:57:57;15.10;69.90
19281;DHT22;9774;52.034;5.342;2023-11-21T13:00:35;15.00;69.80
19281;DHT22;9774;52.034;5.342;2023-11-21T13:03:05;15.00;69.80
19281;DHT22;9774;52.034;5.342;2023-11-21T13:05:36;15.00;69.70
19281;DHT22;9774;52.034;5.342;2023-11-21T13:08:06;15.10;69.70
19281;DHT22;9774;52.034;5.342;2023-11-21T13:10:36;15.00;69.50
19281;DHT22;9774;52.034;5.342;2023-11-21T13:13:06;15.00;69.50
19281;DHT22;9774;52.034;5.342;2023-11-21T13:15:35;15.00;69.50
19281;DHT22;9774;52.034;5.342;2023-11-21T13:18:06;15.00;69.60
19281;DHT22;9774;52.034;5.342;2023-11-21T13:20:34;15.00;69.80
19281;DHT22;9774;52.034;5.342;2023-11-21T13:23:07;15.00;69.80
19281;DHT22;9774;52.034;5.342;2023-11-21T13:25:37;15.00;69.80
19281;DHT22;9774;52.034;5.342;2023-11-21T13:28:08;15.00;69.90
19281;DHT22;9774;52.034;5.342;2023-11-21T13:30:36;15.10;70.00
19281;DHT22;9774;52.034;5.342;2023-11-21T13:33:06;15.10;70.00
19281;DHT22;9774;52.034;5.342;2023-11-21T13:35:37;15.10;69.90
19281;DHT22;9774;52.034;5.342;2023-11-21T13:38:08;15.10;69.90
19281;DHT22;9774;52.034;5.342;2023-11-21T13:40:37;15.10;69.80
19281;DHT22;9774;52.034;5.342;2023-11-21T13:43:10;15.10;69.70
19281;DHT22;9774;52.034;5.342;2023-11-21T13:45:38;15.20;69.70
19281;DHT22;9774;52.034;5.342;2023-11-21T13:48:09;15.20;69.60
19281;DHT22;9774;52.034;5.342;2023-11-21T13:50:39;15.20;69.50
19281;DHT22;9774;52.034;5.342;2023-11-21T13:53:14;15.20;69.50
19281;DHT22;9774;52.034;5.342;2023-11-21T13:55:47;15.20;69.40
19281;DHT22;9774;52.034;5.342;2023-11-21T13:58:16;15.20;69.30
19281;DHT22;9774;52.034;5.342;2023-11-21T14:00:48;15.20;69.30
19281;DHT22;9774;52.034;5.342;2023-11-21T14:03:22;15.20;69.30
19281;DHT22;9774;52.034;5.342;2023-11-21T14:05:58;15.20;69.30
19281;DHT22;9774;52.034;5.342;2023-11-21T14:08:26;15.20;69.30
19281;DHT22;9774;52.034;5.342;2023-11-21T14:10:54;15.20;69.30
19281;DHT22;9774;52.034;5.342;2023-11-21T14:13:24;15.10;69.20
19281;DHT22;9774;52.034;5.342;2023-11-21T14:15:51;15.10;69.10
19281;DHT22;9774;52.034;5.342;2023-11-21T14:18:23;15.10;69.10
19281;DHT22;9774;52.034;5.342;2023-11-21T14:20:56;15.10;69.00
19281;DHT22;9774;52.034;5.342;2023-11-21T14:23:23;15.10;68.90
19281;DHT22;9774;52.034;5.342;2023-11-21T14:25:50;15.00;69.00
19281;DHT22;9774;52.034;5.342;2023-11-21T14:28:17;15.00;68.80
19281;DHT22;9774;52.034;5.342;2023-11-21T14:30:48;14.90;68.80
19281;DHT22;9774;52.034;5.342;2023-11-21T14:33:15;14.90;68.80
19281;DHT22;9774;52.034;5.342;2023-11-21T14:35:42;14.80;68.80
19281;DHT22;9774;52.034;5.342;2023-11-21T14:38:10;14.80;68.80
19281;DHT22;9774;52.034;5.342;2023-11-21T14:40:40;14.80;68.80
19281;DHT22;9774;52.034;5.342;2023-11-21T14:43:07;14.70;68.70
19281;DHT22;9774;52.034;5.342;2023-11-21T14:45:34;14.70;68.70
19281;DHT22;9774;52.034;5.342;2023-11-21T14:48:03;14.60;68.60
19281;DHT22;9774;52.034;5.342;2023-11-21T14:50:42;14.60;68.70
19281;DHT22;9774;52.034;5.342;2023-11-21T14:53:36;14.60;68.80
19281;DHT22;9774;52.034;5.342;2023-11-21T14:56:09;14.50;68.80
19281;DHT22;9774;52.034;5.342;2023-11-21T14:58:36;14.50;68.80
19281;DHT22;9774;52.034;5.342;2023-11-21T15:01:04;14.50;68.90
19281;DHT22;9774;52.034;5.342;2023-11-21T15:03:34;14.40;68.90
19281;DHT22;9774;52.034;5.342;2023-11-21T15:06:14;14.40;68.90
19281;DHT22;9774;52.034;5.342;2023-11-21T15:08:53;14.30;68.70
19281;DHT22;9774;52.034;5.342;2023-11-21T15:11:38;14.40;68.90
19281;DHT22;9774;52.034;5.342;2023-11-21T15:14:06;14.30;68.90
19281;DHT22;9774;52.034;5.342;2023-11-21T15:16:35;14.30;68.90
19281;DHT22;9774;52.034;5.342;2023-11-21T15:19:07;14.30;69.00
19281;DHT22;9774;52.034;5.342;2023-11-21T15:21:35;14.30;68.90
19281;DHT22;9774;52.034;5.342;2023-11-21T15:24:03;14.30;68.90
19281;DHT22;9774;52.034;5.342;2023-11-21T15:26:32;14.20;68.80
19281;DHT22;9774;52.034;5.342;2023-11-21T15:28:59;14.20;68.70
19281;DHT22;9774;52.034;5.342;2023-11-21T15:31:26;14.20;68.60
19281;DHT22;9774;52.034;5.342;2023-11-21T15:33:53;14.10;68.60
19281;DHT22;9774;52.034;5.342;2023-11-21T15:36:26;14.10;68.70
19281;DHT22;9774;52.034;5.342;2023-11-21T15:38:56;14.00;68.60
19281;DHT22;9774;52.034;5.342;2023-11-21T15:41:23;14.00;68.60
19281;DHT22;9774;52.034;5.342;2023-11-21T15:43:51;14.00;68.60
19281;DHT22;9774;52.034;5.342;2023-11-21T15:46:20;13.90;68.60
19281;DHT22;9774;52.034;5.342;2023-11-21T15:48:47;13.90;68.60
19281;DHT22;9774;52.034;5.342;2023-11-21T15:51:19;13.90;68.60
19281;DHT22;9774;52.034;5.342;2023-11-21T15:53:47;13.90;68.70
19281;DHT22;9774;52.034;5.342;2023-11-21T15:56:14;13.80;68.60